createdAt,value
2023-03-14T00:01:13.437Z,1.30
2023-03-14T00:03:41.853Z,1.13
2023-03-14T00:06:11.131Z,1.20
2023-03-14T00:08:39.706Z,1.30
2023-03-14T00:11:09.856Z,1.20
2023-03-14T00:13:39.781Z,1.13
2023-03-14T00:16:10.623Z,1.05
2023-03-14T00:18:39.583Z,1.10
2023-03-14T00:21:10.228Z,1.20
2023-03-14T00:23:40.506Z,1.10
2023-03-14T00:26:11.075Z,1.10
2023-03-14T00:28:41.654Z,1.13
2023-03-14T00:31:13.630Z,1.40
2023-03-14T00:33:43.826Z,1.20
2023-03-14T00:36:14.536Z,1.02
2023-03-14T00:38:44.320Z,1.13
2023-03-14T00:41:15.084Z,1.10
2023-03-14T00:43:45.594Z,1.05
2023-03-14T00:46:14.645Z,1.10
2023-03-14T00:48:46.709Z,1.00
2023-03-14T00:51:16.254Z,1.00
2023-03-14T00:53:46.646Z,0.90
2023-03-14T00:56:15.640Z,1.10
2023-03-14T00:58:45.507Z,1.10
2023-03-14T01:01:17.639Z,1.00
2023-03-14T01:03:47.170Z,1.10
2023-03-14T01:06:20.000Z,1.10
2023-03-14T01:08:49.350Z,1.00
2023-03-14T01:11:20.112Z,1.00
2023-03-14T01:13:50.453Z,0.98
2023-03-14T01:16:20.837Z,1.00
2023-03-14T01:18:49.631Z,0.90
2023-03-14T01:21:20.675Z,0.90
2023-03-14T01:23:49.848Z,1.05
2023-03-14T01:26:21.230Z,1.00
2023-03-14T01:28:53.653Z,1.00
2023-03-14T01:31:22.098Z,0.95
2023-03-14T01:33:50.774Z,0.88
2023-03-14T01:36:19.644Z,0.80
2023-03-14T01:38:48.629Z,1.00
2023-03-14T01:41:20.988Z,0.98
2023-03-14T01:43:51.879Z,1.10
2023-03-14T01:46:32.497Z,0.90
2023-03-14T01:49:06.225Z,1.00
2023-03-14T01:51:42.750Z,1.00
2023-03-14T01:54:16.771Z,0.90
2023-03-14T01:56:50.105Z,0.85
2023-03-14T01:59:21.028Z,0.98
2023-03-14T02:01:53.031Z,1.30
2023-03-14T02:04:22.219Z,1.30
2023-03-14T02:07:01.429Z,1.00
2023-03-14T02:09:34.885Z,0.77
2023-03-14T02:12:03.679Z,0.98
2023-03-14T02:14:49.272Z,0.55
2023-03-14T02:17:47.403Z,0.90
2023-03-14T02:20:36.511Z,0.73
2023-03-14T02:23:05.876Z,0.88
2023-03-14T02:25:42.754Z,0.82
2023-03-14T02:28:13.231Z,1.00
2023-03-14T02:30:42.474Z,0.68
2023-03-14T02:33:15.131Z,0.75
2023-03-14T02:35:49.438Z,0.70
2023-03-14T02:38:23.787Z,0.90
2023-03-14T02:40:52.778Z,0.80
2023-03-14T02:43:22.786Z,0.80
2023-03-14T02:45:57.841Z,0.73
2023-03-14T02:48:28.856Z,0.80
2023-03-14T02:51:01.075Z,0.70
2023-03-14T02:53:32.302Z,0.60
2023-03-14T02:58:36.994Z,0.60
2023-03-14T03:01:14.580Z,0.82
2023-03-14T03:03:43.273Z,0.65
2023-03-14T03:06:11.844Z,0.60
2023-03-14T03:08:40.313Z,0.60
2023-03-14T03:11:09.247Z,0.60
2023-03-14T03:13:39.336Z,0.70
2023-03-14T03:16:09.530Z,0.70
2023-03-14T03:18:38.015Z,0.52
2023-03-14T03:21:09.771Z,0.63
2023-03-14T03:23:38.986Z,0.73
2023-03-14T03:26:08.259Z,0.60
2023-03-14T03:28:36.750Z,0.80
2023-03-14T03:31:10.576Z,0.60
2023-03-14T03:33:40.412Z,0.68
2023-03-14T03:36:10.623Z,0.50
2023-03-14T03:38:41.371Z,0.60
2023-03-14T03:41:11.125Z,0.70
2023-03-14T03:43:39.610Z,0.70
2023-03-14T03:46:12.448Z,0.55
2023-03-14T03:48:41.342Z,0.60
2023-03-14T03:51:14.215Z,0.43
2023-03-14T03:53:43.225Z,0.50
2023-03-14T03:56:14.166Z,0.70
2023-03-14T03:58:43.862Z,0.57
2023-03-14T04:01:13.648Z,0.60
2023-03-14T04:03:42.810Z,0.52
2023-03-14T04:06:13.819Z,0.60
2023-03-14T04:08:45.147Z,0.70
2023-03-14T04:11:24.518Z,0.55
2023-03-14T04:14:11.650Z,0.70
2023-03-14T04:16:42.006Z,0.60
2023-03-14T04:19:14.301Z,0.50
2023-03-14T04:21:45.718Z,0.60
2023-03-14T04:24:14.836Z,0.73
2023-03-14T04:26:45.811Z,0.60
2023-03-14T04:29:14.288Z,0.70
2023-03-14T04:31:47.132Z,0.45
2023-03-14T04:34:15.786Z,0.60
2023-03-14T04:36:50.320Z,0.32
2023-03-14T04:39:23.338Z,0.47
2023-03-14T04:42:01.916Z,0.50
2023-03-14T04:44:30.434Z,0.40
2023-03-14T04:47:00.761Z,0.40
2023-03-14T04:49:29.567Z,0.50
2023-03-14T04:51:58.084Z,0.40
2023-03-14T04:54:28.336Z,0.52
2023-03-14T04:56:59.921Z,0.40
2023-03-14T04:59:32.176Z,0.50
2023-03-14T05:02:09.902Z,0.40
2023-03-14T05:07:26.766Z,0.55
2023-03-14T05:10:15.454Z,0.55
2023-03-14T05:13:05.280Z,0.40
2023-03-14T05:16:06.528Z,0.70
2023-03-14T05:19:03.119Z,0.50
2023-03-14T05:21:50.141Z,0.50
2023-03-14T05:24:18.568Z,0.32
2023-03-14T05:27:06.323Z,0.50
2023-03-14T05:29:53.480Z,0.40
2023-03-14T05:32:34.374Z,0.40
2023-03-14T05:35:36.409Z,0.50
2023-03-14T05:38:32.518Z,0.20
2023-03-14T05:41:27.304Z,0.52
2023-03-14T05:44:05.489Z,0.60
2023-03-14T05:46:50.528Z,0.60
2023-03-14T05:49:30.992Z,0.40
2023-03-14T05:52:27.089Z,0.60
2023-03-14T05:55:10.165Z,0.40
2023-03-14T05:58:10.321Z,0.50
2023-03-14T06:00:54.775Z,0.43
2023-03-14T06:03:40.416Z,0.63
2023-03-14T06:06:11.075Z,0.80
2023-03-14T06:08:40.936Z,0.63
2023-03-14T06:11:13.355Z,0.65
2023-03-14T06:13:42.741Z,0.68
2023-03-14T06:16:11.433Z,0.63
2023-03-14T06:18:39.939Z,0.65
2023-03-14T06:21:10.564Z,0.70
2023-03-14T06:23:41.065Z,1.20
2023-03-14T06:26:09.627Z,0.70
2023-03-14T06:28:38.084Z,0.80
2023-03-14T06:31:07.567Z,0.57
2023-03-14T06:33:43.326Z,0.80
2023-03-14T06:36:12.672Z,0.80
2023-03-14T06:38:45.863Z,0.70
2023-03-14T06:41:15.271Z,0.68
2023-03-14T06:43:46.379Z,0.70
2023-03-14T06:46:16.520Z,0.60
2023-03-14T06:48:45.469Z,0.60
2023-03-14T06:51:14.893Z,0.70
2023-03-14T06:53:43.811Z,0.70
2023-03-14T06:56:13.730Z,0.68
2023-03-14T06:58:42.168Z,0.80
2023-03-14T07:01:22.105Z,0.90
2023-03-14T07:03:50.980Z,0.80
2023-03-14T07:06:19.667Z,0.80
2023-03-14T07:08:50.226Z,0.70
2023-03-14T07:11:20.918Z,1.17
2023-03-14T07:13:49.613Z,0.70
2023-03-14T07:16:18.128Z,0.60
2023-03-14T07:18:46.568Z,1.40
2023-03-14T07:21:15.039Z,0.40
2023-03-14T07:23:43.489Z,0.50
2023-03-14T07:26:11.967Z,0.55
2023-03-14T07:28:47.818Z,0.80
2023-03-14T07:31:19.759Z,0.75
2023-03-14T07:33:48.878Z,0.60
2023-03-14T07:36:18.609Z,0.80
2023-03-14T07:38:47.656Z,0.70
2023-03-14T07:41:37.089Z,0.70
2023-03-14T07:44:35.624Z,0.80
2023-03-14T07:47:04.127Z,0.98
2023-03-14T07:49:32.594Z,0.60
2023-03-14T07:52:01.118Z,0.80
2023-03-14T07:54:29.852Z,0.90
2023-03-14T07:56:59.811Z,0.77
2023-03-14T07:59:28.514Z,0.60
2023-03-14T08:01:58.325Z,1.02
2023-03-14T08:04:28.101Z,0.90
2023-03-14T08:06:56.608Z,1.02
2023-03-14T08:09:25.124Z,0.70
2023-03-14T08:11:53.530Z,0.50
2023-03-14T08:14:24.741Z,0.63
2023-03-14T08:16:53.685Z,0.90
2023-03-14T08:19:23.546Z,0.70
2023-03-14T08:21:52.317Z,0.70
2023-03-14T08:24:20.757Z,0.80
2023-03-14T08:26:49.221Z,0.77
2023-03-14T08:29:17.627Z,0.90
2023-03-14T08:31:46.254Z,0.93
2023-03-14T08:34:14.653Z,0.70
2023-03-14T08:36:44.760Z,0.90
2023-03-14T08:39:13.329Z,0.80
2023-03-14T08:41:43.730Z,0.52
2023-03-14T08:44:13.500Z,0.65
2023-03-14T08:46:42.160Z,0.65
2023-03-14T08:49:10.698Z,1.10
2023-03-14T08:51:39.140Z,0.65
2023-03-14T08:54:12.204Z,0.70
2023-03-14T08:56:41.028Z,0.77
2023-03-14T08:59:11.227Z,0.85
2023-03-14T09:01:39.714Z,0.80
2023-03-14T09:04:08.670Z,0.90
2023-03-14T09:06:37.195Z,0.93
2023-03-14T09:09:05.931Z,1.08
2023-03-14T09:11:35.873Z,0.90
2023-03-14T09:14:04.579Z,0.98
2023-03-14T09:16:33.158Z,0.90
2023-03-14T09:19:01.613Z,0.80
2023-03-14T09:21:30.077Z,0.90
2023-03-14T09:23:58.553Z,0.98
2023-03-14T09:26:27.143Z,1.00
2023-03-14T09:28:59.966Z,0.90
2023-03-14T09:31:29.516Z,1.10
2023-03-14T09:33:58.073Z,0.77
2023-03-14T09:36:26.757Z,0.80
2023-03-14T09:38:55.145Z,0.70
2023-03-14T09:41:27.180Z,0.85
2023-03-14T09:44:04.602Z,0.80
2023-03-14T09:46:37.307Z,0.73
2023-03-14T09:49:13.644Z,0.80
2023-03-14T09:51:44.586Z,1.00
2023-03-14T09:54:31.787Z,0.70
2023-03-14T09:57:00.320Z,0.75
2023-03-14T09:59:32.040Z,0.93
2023-03-14T10:02:03.218Z,0.77
2023-03-14T10:04:34.043Z,0.70
2023-03-14T10:07:04.696Z,1.00
2023-03-14T10:09:33.443Z,0.80
2023-03-14T10:12:08.934Z,0.80
2023-03-14T10:14:46.261Z,0.70
2023-03-14T10:17:16.772Z,0.77
2023-03-14T10:19:57.158Z,1.00
2023-03-14T10:22:28.095Z,1.27
2023-03-14T10:25:00.215Z,0.70
2023-03-14T10:27:33.544Z,0.60
2023-03-14T10:30:07.641Z,0.70
2023-03-14T10:32:38.833Z,0.80
2023-03-14T10:35:22.336Z,0.85
2023-03-14T10:37:55.248Z,1.00
2023-03-14T10:40:30.448Z,0.80
2023-03-14T10:43:01.048Z,1.05
2023-03-14T10:45:40.256Z,1.05
2023-03-14T10:48:21.121Z,1.08
2023-03-14T10:50:51.832Z,1.08
2023-03-14T10:53:20.567Z,1.40
2023-03-14T10:55:49.630Z,1.00
2023-03-14T10:58:27.221Z,1.40
2023-03-14T11:01:33.964Z,1.30
2023-03-14T11:04:15.613Z,1.15
2023-03-14T11:06:49.932Z,1.25
2023-03-14T11:09:24.460Z,1.25
2023-03-14T11:11:52.919Z,1.20
2023-03-14T11:14:30.413Z,1.30
2023-03-14T11:17:04.182Z,0.90
2023-03-14T11:19:57.039Z,0.98
2023-03-14T11:22:34.155Z,0.90
2023-03-14T11:25:15.980Z,0.80
2023-03-14T11:27:46.606Z,0.77
2023-03-14T11:30:22.446Z,0.90
2023-03-14T11:33:01.398Z,1.13
2023-03-14T11:35:34.243Z,0.50
2023-03-14T11:38:13.443Z,0.65
2023-03-14T11:40:43.229Z,0.63
2023-03-14T11:43:17.242Z,0.60
2023-03-14T11:45:46.953Z,0.70
2023-03-14T11:48:31.417Z,0.70
2023-03-14T11:51:04.082Z,0.45
2023-03-14T11:53:45.310Z,0.40
2023-03-14T11:56:21.575Z,0.60
2023-03-14T11:58:57.606Z,0.73
2023-03-14T12:01:33.554Z,0.90
2023-03-14T12:04:08.897Z,0.60
2023-03-14T12:06:44.661Z,0.70
2023-03-14T12:09:14.476Z,0.65
2023-03-14T12:11:48.246Z,0.80
2023-03-14T12:14:22.515Z,0.57
2023-03-14T12:16:51.676Z,0.80
2023-03-14T12:19:42.656Z,0.70
2023-03-14T12:22:28.774Z,0.85
2023-03-14T12:25:01.965Z,0.70
2023-03-14T12:28:05.327Z,0.77
2023-03-14T12:30:37.245Z,0.90
2023-03-14T12:33:33.571Z,0.75
2023-03-14T12:36:40.866Z,0.88
2023-03-14T12:39:37.741Z,0.70
2023-03-14T12:42:09.397Z,0.82
2023-03-14T12:44:49.437Z,0.82
2023-03-14T12:48:05.561Z,0.98
2023-03-14T12:50:38.751Z,0.73
2023-03-14T12:53:39.807Z,1.00
2023-03-14T12:56:22.064Z,0.85
2023-03-14T12:59:04.107Z,0.80
2023-03-14T13:01:35.554Z,0.98
2023-03-14T13:04:09.605Z,1.00
2023-03-14T13:09:52.880Z,0.80
2023-03-14T13:12:31.058Z,0.75
2023-03-14T13:15:03.418Z,1.02
2023-03-14T13:17:37.122Z,0.75
2023-03-14T13:20:14.823Z,0.90
2023-03-14T13:22:48.483Z,0.77
2023-03-14T13:25:19.314Z,0.90
2023-03-14T13:27:49.733Z,0.80
2023-03-14T13:30:20.962Z,0.80
2023-03-14T13:32:51.218Z,0.90
2023-03-14T13:35:23.263Z,0.85
2023-03-14T13:38:10.521Z,1.10
2023-03-14T13:40:40.964Z,0.77
2023-03-14T13:43:25.531Z,0.80
2023-03-14T13:45:57.660Z,0.75
2023-03-14T13:48:29.688Z,0.80
2023-03-14T13:51:02.539Z,1.05
2023-03-14T13:53:31.169Z,0.90
2023-03-14T13:56:04.341Z,0.82
2023-03-14T13:58:34.412Z,1.02
2023-03-14T14:01:12.959Z,0.80
2023-03-14T14:03:44.005Z,0.80
2023-03-14T14:06:23.985Z,0.80
2023-03-14T14:08:52.642Z,1.00
2023-03-14T14:11:42.678Z,0.93
2023-03-14T14:16:47.585Z,0.80
2023-03-14T14:19:17.404Z,0.60
2023-03-14T14:21:46.282Z,0.80
2023-03-14T14:24:16.430Z,0.80
2023-03-14T14:26:49.831Z,0.85
2023-03-14T14:29:28.979Z,0.90
2023-03-14T14:32:14.408Z,0.80
2023-03-14T14:34:50.252Z,0.60
2023-03-14T14:37:21.644Z,1.00
2023-03-14T14:39:51.055Z,0.63
2023-03-14T14:42:23.604Z,0.73
2023-03-14T14:44:54.143Z,0.80
2023-03-14T14:47:26.592Z,0.82
2023-03-14T14:49:56.454Z,0.90
2023-03-14T14:52:36.487Z,0.80
2023-03-14T14:55:13.220Z,0.80
2023-03-14T14:57:43.222Z,0.80
2023-03-14T15:00:22.365Z,0.90
2023-03-14T15:02:55.279Z,1.02
2023-03-14T15:05:26.246Z,1.10
2023-03-14T15:07:55.147Z,0.80
2023-03-14T15:10:26.139Z,0.95
2023-03-14T15:12:55.042Z,0.60
2023-03-14T15:15:24.809Z,0.68
2023-03-14T15:17:53.254Z,0.80
2023-03-14T15:20:24.572Z,0.90
2023-03-14T15:22:53.494Z,0.75
2023-03-14T15:25:47.299Z,0.85
2023-03-14T15:28:19.441Z,0.90
2023-03-14T15:30:49.989Z,0.95
2023-03-14T15:33:18.507Z,0.88
2023-03-14T15:35:48.272Z,1.00
2023-03-14T15:38:20.642Z,0.70
2023-03-14T15:40:49.504Z,0.85
2023-03-14T15:43:18.388Z,0.98
2023-03-14T15:45:47.147Z,0.82
2023-03-14T15:48:19.427Z,1.58
2023-03-14T15:50:47.922Z,0.75
2023-03-14T15:53:16.855Z,0.73
2023-03-14T15:55:45.361Z,0.90
2023-03-14T15:58:21.068Z,0.70
2023-03-14T16:00:50.522Z,0.60
2023-03-14T16:03:20.641Z,0.70
2023-03-14T16:05:49.213Z,0.90
2023-03-14T16:08:18.062Z,0.70
2023-03-14T16:10:47.010Z,0.85
2023-03-14T16:13:15.442Z,0.60
2023-03-14T16:15:43.953Z,0.80
2023-03-14T16:18:21.688Z,0.73
2023-03-14T16:21:00.361Z,0.63
2023-03-14T16:23:30.520Z,0.60
2023-03-14T16:25:59.712Z,0.70
2023-03-14T16:28:28.315Z,1.10
2023-03-14T16:31:01.636Z,0.73
2023-03-14T16:33:30.636Z,0.60
2023-03-14T16:36:05.972Z,0.80
2023-03-14T16:38:35.650Z,1.05
2023-03-14T16:41:06.705Z,0.70
2023-03-14T16:43:37.483Z,0.88
2023-03-14T16:46:07.672Z,0.75
2023-03-14T16:48:36.484Z,0.68
2023-03-14T16:51:06.722Z,0.65
2023-03-14T16:53:35.218Z,1.10
2023-03-14T16:56:03.962Z,0.47
2023-03-14T16:58:32.387Z,0.80
2023-03-14T17:01:09.827Z,0.80
2023-03-14T17:03:38.970Z,0.80
2023-03-14T17:06:11.519Z,0.70
2023-03-14T17:08:40.118Z,0.93
2023-03-14T17:11:09.132Z,0.50
2023-03-14T17:13:38.094Z,0.60
2023-03-14T17:16:07.232Z,0.73
2023-03-14T17:18:36.802Z,0.52
2023-03-14T17:21:06.667Z,0.60
2023-03-14T17:23:37.031Z,0.80
2023-03-14T17:26:05.701Z,0.80
2023-03-14T17:28:34.359Z,0.75
2023-03-14T17:31:07.421Z,0.73
2023-03-14T17:33:37.090Z,0.70
2023-03-14T17:36:07.337Z,0.70
2023-03-14T17:38:37.995Z,0.70
2023-03-14T17:41:09.464Z,0.90
2023-03-14T17:43:37.953Z,0.80
2023-03-14T17:46:11.468Z,0.50
2023-03-14T17:48:40.281Z,0.60
2023-03-14T17:51:09.525Z,0.60
2023-03-14T17:53:40.261Z,0.52
2023-03-14T17:56:09.675Z,0.88
2023-03-14T17:58:38.304Z,0.80
2023-03-14T18:01:11.571Z,0.80
2023-03-14T18:03:41.656Z,0.80
2023-03-14T18:06:11.863Z,1.00
2023-03-14T18:08:43.680Z,1.00
2023-03-14T18:11:12.490Z,0.80
2023-03-14T18:13:41.485Z,0.60
2023-03-14T18:16:14.560Z,0.60
2023-03-14T18:18:43.191Z,0.60
2023-03-14T18:21:11.667Z,0.77
2023-03-14T18:23:41.767Z,0.70
2023-03-14T18:26:10.508Z,0.75
2023-03-14T18:28:38.996Z,0.70
2023-03-14T18:31:09.038Z,0.80
2023-03-14T18:33:40.220Z,0.77
2023-03-14T18:36:09.266Z,0.73
2023-03-14T18:38:42.468Z,0.70
2023-03-14T18:41:14.880Z,0.80
2023-03-14T18:43:44.373Z,0.60
2023-03-14T18:46:13.261Z,0.65
2023-03-14T18:48:43.129Z,0.90
2023-03-14T18:51:15.089Z,1.40
2023-03-14T18:53:44.325Z,0.70
2023-03-14T18:56:15.639Z,0.70
2023-03-14T18:58:44.256Z,1.00
2023-03-14T19:01:13.011Z,1.10
2023-03-14T19:03:42.096Z,1.30
2023-03-14T19:06:12.010Z,0.75
2023-03-14T19:08:42.986Z,1.33
2023-03-14T19:11:13.626Z,1.23
2023-03-14T19:13:44.072Z,1.33
2023-03-14T19:16:14.186Z,1.20
2023-03-14T19:18:45.289Z,1.42
2023-03-14T19:21:27.641Z,1.38
2023-03-14T19:23:56.324Z,1.65
2023-03-14T19:26:25.393Z,2.08
2023-03-14T19:28:55.171Z,2.72
2023-03-14T19:31:23.860Z,2.58
2023-03-14T19:33:53.023Z,2.55
2023-03-14T19:36:24.576Z,2.67
2023-03-14T19:38:54.088Z,2.78
2023-03-14T19:41:25.501Z,2.65
2023-03-14T19:43:55.452Z,2.33
2023-03-14T19:46:24.594Z,2.75
2023-03-14T19:48:54.715Z,2.40
2023-03-14T19:51:23.764Z,2.47
2023-03-14T19:53:53.225Z,2.53
2023-03-14T19:56:23.904Z,2.65
2023-03-14T19:58:52.878Z,2.35
2023-03-14T20:01:24.434Z,2.58
2023-03-14T20:03:53.556Z,2.20
2023-03-14T20:06:22.664Z,2.42
2023-03-14T20:08:51.205Z,2.65
2023-03-14T20:11:20.059Z,2.67
2023-03-14T20:13:48.487Z,2.40
2023-03-14T20:16:17.271Z,2.35
2023-03-14T20:18:47.326Z,2.55
2023-03-14T20:21:15.771Z,2.33
2023-03-14T20:23:44.345Z,2.38
2023-03-14T20:26:12.755Z,2.53
2023-03-14T20:28:42.712Z,2.60
2023-03-14T20:31:11.633Z,2.30
2023-03-14T20:33:40.053Z,2.63
2023-03-14T20:36:10.447Z,2.50
2023-03-14T20:38:39.190Z,3.20
2023-03-14T20:41:09.267Z,2.90
2023-03-14T20:43:38.230Z,3.25
2023-03-14T20:46:06.844Z,2.83
2023-03-14T20:48:35.245Z,2.88
2023-03-14T20:51:03.968Z,2.90
2023-03-14T20:53:33.725Z,2.88
2023-03-14T20:56:02.204Z,3.05
2023-03-14T20:58:30.949Z,2.90
2023-03-14T21:00:59.415Z,3.10
2023-03-14T21:03:27.818Z,3.20
2023-03-14T21:05:56.275Z,2.85
2023-03-14T21:08:26.018Z,3.22
2023-03-14T21:10:56.450Z,2.83
2023-03-14T21:13:26.747Z,2.90
2023-03-14T21:15:55.328Z,3.05
2023-03-14T21:18:24.319Z,2.80
2023-03-14T21:20:54.370Z,2.67
2023-03-14T21:23:26.325Z,3.08
2023-03-14T21:25:57.563Z,3.10
2023-03-14T21:28:26.401Z,2.95
2023-03-14T21:30:55.294Z,3.10
2023-03-14T21:33:24.114Z,2.80
2023-03-14T21:35:53.457Z,3.13
2023-03-14T21:38:21.957Z,3.28
2023-03-14T21:40:56.952Z,3.28
2023-03-14T21:43:27.712Z,3.60
2023-03-14T21:45:56.290Z,2.80
2023-03-14T21:48:24.732Z,1.95
2023-03-14T21:50:53.314Z,2.47
2023-03-14T21:53:22.109Z,2.20
2023-03-14T21:55:53.385Z,2.13
2023-03-14T21:58:21.819Z,2.83
2023-03-14T22:00:51.621Z,2.03
2023-03-14T22:03:23.293Z,2.60
2023-03-14T22:05:51.878Z,2.97
2023-03-14T22:08:22.558Z,2.63
2023-03-14T22:10:53.094Z,2.55
2023-03-14T22:13:23.459Z,2.80
2023-03-14T22:15:53.693Z,2.53
2023-03-14T22:18:22.144Z,2.60
2023-03-14T22:20:50.551Z,2.92
2023-03-14T22:23:18.974Z,2.75
2023-03-14T22:26:06.815Z,2.88
2023-03-14T22:28:35.245Z,3.00
2023-03-14T22:31:05.236Z,3.08
2023-03-14T22:33:33.710Z,3.10
2023-03-14T22:36:02.607Z,2.60
2023-03-14T22:38:31.118Z,2.72
2023-03-14T22:41:02.279Z,2.80
2023-03-14T22:43:31.699Z,2.42
2023-03-14T22:46:01.124Z,2.88
2023-03-14T22:48:31.097Z,2.80
2023-03-14T22:51:00.359Z,3.15
2023-03-14T22:53:28.783Z,3.03
2023-03-14T22:56:01.055Z,2.63
2023-03-14T22:58:30.042Z,2.92
2023-03-14T23:00:58.438Z,2.72
2023-03-14T23:03:27.638Z,2.92
2023-03-14T23:05:57.451Z,2.63
2023-03-14T23:08:26.123Z,2.88
2023-03-14T23:11:01.274Z,2.53
2023-03-14T23:13:31.126Z,2.70
2023-03-14T23:15:59.645Z,2.75
2023-03-14T23:18:28.358Z,2.80
2023-03-14T23:21:08.312Z,2.90
2023-03-14T23:23:36.873Z,2.70
2023-03-14T23:26:06.462Z,2.50
2023-03-14T23:28:34.991Z,3.38
2023-03-14T23:31:06.226Z,2.90
2023-03-14T23:33:36.392Z,2.95
2023-03-14T23:36:07.890Z,2.63
2023-03-14T23:38:36.486Z,2.50
2023-03-14T23:41:05.189Z,2.30
2023-03-14T23:43:33.670Z,2.80
2023-03-14T23:46:02.351Z,3.03
2023-03-14T23:48:33.681Z,2.78
2023-03-14T23:51:04.019Z,2.55
2023-03-14T23:53:34.453Z,2.72
2023-03-14T23:56:03.405Z,2.88
2023-03-14T23:58:35.758Z,2.65
